San Francisco, CA

12:04 PM PDT on September 01, 2014 (GMT -0700)
NEMA | Change Station
CLOSE
Current Station
Personal Weather Station
Location: San Francisco, CA
Elevation: 102 ft
Nearby Weather Stations

Elev 102 ft 37.78 °N, 122.42 °W | Updated 13 minutes ago

Clear
Clear
73.2 °F
Feels Like 75 °F
N
-
Wind Variable Wind from North

Today
High -- | Low -- °F
--% Chance of Precip.
Yesterday
High -- | Low -- °F
Precip. -- in
6:39 AM 7:38 PM
Waxing Crescent, 43% visible
Pressure 29.84 in
Visibility 10.0 miles
Clouds Clear
Heat Index 75 °F
Dew Point 60 °F
Humidity 69%
Rainfall -999.00 in
Snow Depth Not available.
UV 9 out of 12
Pollen 8.40 out of 12
PM2.5 Good
Flu Activity Not available.
METAR KSFO 011856Z 04004KT 10SM CLR 23/17 A2984 RMK AO2 SLP104 T02280167

More Conditions Fewer Conditions

Pressure 29.84 in
Visibility 10.0 miles
Clouds Clear
Heat Index 75 °F
Dew Point 60 °F
Humidity 69%
Rainfall -999.00 in
Snow Depth Not available.
UV 9 out of 12
Pollen 8.40 out of 12
PM2.5 Good
Flu Activity Not available.
METAR KSFO 011856Z 04004KT 10SM CLR 23/17 A2984 RMK AO2 SLP104 T02280167

More Conditions Fewer Conditions

10-Day Weather Forecast

Almanac

Astronomy

Sep. 01, 2014 Rise Set
Actual Time 6:39 AM PDT 7:38 PM PDT
Civil Twilight 6:12 AM PDT 8:05 PM PDT
Nautical Twilight 5:41 AM PDT 8:37 PM PDT
Astronomical Twilight 5:07 AM PDT 9:10 PM PDT
Moon 1:23 PM PDT 11:51 PM PDT
Length of Visible Light 13h 52m
Length of Day
12h 58m
Tomorrow will be 2m 19s shorter.
Waxing Crescent, 43% of the Moon is Illuminated
Today
Waxing Crescent
Sep 2
First Quarter
Sep 8
Full
Sep 15
Last Quarter
Sep 24
New

Today's Extremes

State Highs State Lows

Community

WunderPhotos

Upload Photos

1,749,367 photos uploaded!

WunderBlogs® & News

Nearby

Air Quality

  Air Quality AQ Index Pollutant
Yesterday Good
PM2.5
Yesterday Good
OZONE
Current Good
PM2.5
Monday Good
PM2.5
Tuesday Good
PM2.5
Wednesday Good
PM2.5
Thursday Good
PM2.5
Friday Good
PM2.5

Snow Depth

Station Depth Elevation
Blue Lakes 0 in 8000 ft
Forestdale Creek 0 in 8029 ft
Rubicon #2 0 in 7500 ft
Leavitt Meadows 0 in 7200 ft
Adin Mountain 1 in 6200 ft

Earthquake Activity

City Distance Mag. Time & Date
Gilroy, California 75 miles 3.5 9:10 AM PDT
2014-09-01
Green Valley, California 35 miles 2.5 6:37 AM PDT
2014-08-31
Napa, California 31 miles 3.2 1:56 AM PDT
2014-08-31
Gonzales, California 101 miles 2.7 9:48 PM PDT
2014-08-30
Minimum magnitude displayed is 2.5.

Coastal Water Temperatures

Place Temperature
No Stations Reporting

Nearby Weather Stations